Time;durP1;ratioP1;P1;durP2;ratioP2;P2;SDS_P1;SDS_P2;PMS_P1;PMS_P2;Temp;Humidity;BMP_temperature;BMP_pressure;BME280_temperature;BME280_humidity;BME280_pressure;Samples;Min_cycle;Max_cycle;Signal;HPM_P1;HPM_P2
2023/12/16 00:01:47;;;;;;;137.50;64.10;;;;;;;;;;106988;1253;60924;-80
2023/12/16 00:04:14;;;;;;;82.40;43.40;;;;;;;;;;106917;1253;60032;-80
2023/12/16 00:06:40;;;;;;;92.00;44.90;;;;;;;;;;106856;1253;59926;-80
2023/12/16 00:09:06;;;;;;;93.90;43.60;;;;;;;;;;106954;1255;61109;-80
2023/12/16 00:11:33;;;;;;;80.90;39.00;;;;;;;;;;106950;1253;60683;-80
2023/12/16 00:13:59;;;;;;;79.30;39.10;;;;;;;;;;107054;1253;59674;-80
2023/12/16 00:16:26;;;;;;;73.10;34.40;;;;;;;;;;106820;1253;59791;-80
2023/12/16 00:18:52;;;;;;;69.70;34.60;;;;;;;;;;107040;1253;59937;-82
2023/12/16 00:21:19;;;;;;;72.10;33.00;;;;;;;;;;106995;1252;59766;-80
2023/12/16 00:23:45;;;;;;;63.70;32.10;;;;;;;;;;107081;1251;59872;-80
2023/12/16 00:26:12;;;;;;;76.10;36.50;;;;;;;;;;107112;1254;60946;-80
2023/12/16 00:28:39;;;;;;;67.80;34.10;;;;;;;;;;106996;1251;60784;-80
2023/12/16 00:31:06;;;;;;;59.50;30.50;;;;;;;;;;106961;1251;59851;-80
2023/12/16 00:33:33;;;;;;;62.80;32.60;;;;;;;;;;107096;1250;60833;-80
2023/12/16 00:35:59;;;;;;;61.10;30.30;;;;;;;;;;107090;1251;59743;-80
2023/12/16 00:38:26;;;;;;;63.20;31.10;;;;;;;;;;107064;1251;59818;-80
2023/12/16 00:40:52;;;;;;;40.40;18.70;;;;;;;;;;107015;1253;59898;-80
2023/12/16 00:43:19;;;;;;;38.90;19.90;;;;;;;;;;107037;1253;59882;-80
2023/12/16 00:45:46;;;;;;;49.60;25.60;;;;;;;;;;107053;1251;59696;-80
2023/12/16 00:48:12;;;;;;;54.30;28.80;;;;;;;;;;107593;1251;59912;-80
2023/12/16 00:50:39;;;;;;;58.40;30.10;;;;;;;;;;107615;1251;59701;-80
2023/12/16 00:53:06;;;;;;;59.00;30.30;;;;;;;;;;107515;1251;59511;-80
2023/12/16 00:55:32;;;;;;;63.40;30.30;;;;;;;;;;107556;1251;59741;-80
2023/12/16 00:57:59;;;;;;;56.20;28.80;;;;;;;;;;107559;1253;59303;-80
2023/12/16 01:00:25;;;;;;;49.20;26.30;;;;;;;;;;106973;1252;61056;-80
2023/12/16 01:02:52;;;;;;;56.20;27.00;;;;;;;;;;106945;1253;60579;-80
2023/12/16 01:05:18;;;;;;;53.40;28.00;;;;;;;;;;106946;1251;59784;-80
2023/12/16 01:07:46;;;;;;;53.70;25.80;;;;;;;;;;106901;1253;59745;-80
2023/12/16 01:10:13;;;;;;;60.20;27.00;;;;;;;;;;107466;1253;59690;-80
2023/12/16 01:12:39;;;;;;;53.50;26.30;;;;;;;;;;107533;1253;62019;-80
2023/12/16 01:15:06;;;;;;;51.00;24.10;;;;;;;;;;107457;1253;59231;-80
2023/12/16 01:17:33;;;;;;;68.20;32.20;;;;;;;;;;107478;1251;59728;-80
2023/12/16 01:19:59;;;;;;;59.20;33.40;;;;;;;;;;107457;1251;60740;-80
2023/12/16 01:22:26;;;;;;;78.30;45.60;;;;;;;;;;107513;1251;59693;-80
2023/12/16 01:24:52;;;;;;;52.80;30.90;;;;;;;;;;107545;1251;62568;-80
2023/12/16 01:27:20;;;;;;;59.20;29.90;;;;;;;;;;107589;1252;59910;-81
2023/12/16 01:29:46;;;;;;;64.90;33.20;;;;;;;;;;107521;1253;60711;-81
2023/12/16 01:32:12;;;;;;;71.00;38.40;;;;;;;;;;107497;1251;60865;-81
2023/12/16 01:34:39;;;;;;;54.00;30.90;;;;;;;;;;106990;1251;59751;-81
2023/12/16 01:37:05;;;;;;;63.40;30.70;;;;;;;;;;106969;1254;59752;-80
2023/12/16 01:39:32;;;;;;;53.10;28.30;;;;;;;;;;107040;1251;59800;-81
2023/12/16 01:41:58;;;;;;;58.70;31.40;;;;;;;;;;106950;1253;59215;-80
2023/12/16 01:44:25;;;;;;;61.10;30.60;;;;;;;;;;106950;1251;60811;-81
2023/12/16 01:46:51;;;;;;;44.80;20.60;;;;;;;;;;106988;1253;59851;-80
2023/12/16 01:49:18;;;;;;;62.50;32.30;;;;;;;;;;107001;1251;59804;-80
2023/12/16 01:51:44;;;;;;;54.10;28.00;;;;;;;;;;107574;1250;59840;-80
2023/12/16 01:54:11;;;;;;;66.70;33.40;;;;;;;;;;107544;1251;60887;-80
2023/12/16 01:56:38;;;;;;;58.70;32.20;;;;;;;;;;107062;1251;59852;-80
2023/12/16 01:59:05;;;;;;;69.80;38.00;;;;;;;;;;106985;1251;59800;-80
2023/12/16 02:01:31;;;;;;;53.20;27.70;;;;;;;;;;107040;1250;62049;-80
2023/12/16 02:03:58;;;;;;;45.60;25.50;;;;;;;;;;106973;1253;59829;-80
2023/12/16 02:06:25;;;;;;;61.20;36.50;;;;;;;;;;107004;1251;60984;-80
2023/12/16 02:08:51;;;;;;;63.70;32.70;;;;;;;;;;107043;1251;59720;-80
2023/12/16 02:11:18;;;;;;;61.40;33.30;;;;;;;;;;107117;1253;59700;-80
2023/12/16 02:13:44;;;;;;;71.70;35.20;;;;;;;;;;107104;1251;59767;-82
2023/12/16 02:16:11;;;;;;;73.80;38.40;;;;;;;;;;107075;1253;60988;-81
2023/12/16 02:18:37;;;;;;;68.10;39.10;;;;;;;;;;107023;1253;60946;-80
2023/12/16 02:21:04;;;;;;;66.80;33.20;;;;;;;;;;107029;1252;61126;-81
2023/12/16 02:23:30;;;;;;;65.50;32.40;;;;;;;;;;107086;1250;59835;-81
2023/12/16 02:25:57;;;;;;;56.90;30.60;;;;;;;;;;107130;1253;59825;-81
2023/12/16 02:28:23;;;;;;;55.60;26.90;;;;;;;;;;107032;1253;59813;-81
2023/12/16 02:30:50;;;;;;;70.00;37.50;;;;;;;;;;108339;1251;59791;-80
2023/12/16 02:33:17;;;;;;;74.30;38.50;;;;;;;;;;109594;1251;59081;-80
2023/12/16 02:35:43;;;;;;;69.70;34.60;;;;;;;;;;107450;1251;59818;-80
2023/12/16 02:38:10;;;;;;;70.30;29.10;;;;;;;;;;107107;1251;62843;-81
2023/12/16 02:40:41;;;;;;;73.90;36.60;;;;;;;;;;108177;1251;59799;-80
2023/12/16 02:43:08;;;;;;;55.80;28.50;;;;;;;;;;109610;1251;59428;-81
2023/12/16 02:45:35;;;;;;;40.40;19.90;;;;;;;;;;109571;1251;58881;-80
2023/12/16 02:48:01;;;;;;;46.30;24.60;;;;;;;;;;109589;1251;58922;-80
2023/12/16 02:50:28;;;;;;;48.80;22.20;;;;;;;;;;107553;1251;60848;-81
2023/12/16 02:52:54;;;;;;;54.60;27.70;;;;;;;;;;107199;1253;59816;-81
2023/12/16 02:55:21;;;;;;;49.10;26.50;;;;;;;;;;107678;1252;61925;-81
2023/12/16 02:57:47;;;;;;;56.80;31.50;;;;;;;;;;107725;1253;61685;-81
2023/12/16 03:00:14;;;;;;;52.70;26.30;;;;;;;;;;107057;1252;59194;-81
2023/12/16 03:02:40;;;;;;;62.70;29.40;;;;;;;;;;107079;1253;61939;-81
2023/12/16 03:05:07;;;;;;;69.30;31.30;;;;;;;;;;107036;1253;59777;-81
2023/12/16 03:07:34;;;;;;;58.00;30.00;;;;;;;;;;106968;1253;59896;-82
2023/12/16 03:10:00;;;;;;;61.50;28.20;;;;;;;;;;107005;1253;59893;-81
2023/12/16 03:12:27;;;;;;;46.30;21.80;;;;;;;;;;107641;1253;59093;-81
2023/12/16 03:14:53;;;;;;;40.80;20.00;;;;;;;;;;107626;1252;61568;-81
2023/12/16 03:17:20;;;;;;;52.90;24.40;;;;;;;;;;106911;1252;61866;-81
2023/12/16 03:19:46;;;;;;;40.70;21.10;;;;;;;;;;106879;1253;61346;-81
2023/12/16 03:22:13;;;;;;;41.20;22.00;;;;;;;;;;107001;1253;60750;-82
2023/12/16 03:24:39;;;;;;;46.30;22.60;;;;;;;;;;106980;1253;61728;-80
2023/12/16 03:27:06;;;;;;;67.10;32.00;;;;;;;;;;107049;1253;61644;-81
2023/12/16 03:29:32;;;;;;;57.20;26.50;;;;;;;;;;107608;1253;59740;-80
2023/12/16 03:31:59;;;;;;;62.90;29.70;;;;;;;;;;107522;1252;59834;-81
2023/12/16 03:34:26;;;;;;;56.80;23.80;;;;;;;;;;107563;1251;60875;-80
2023/12/16 03:36:52;;;;;;;74.10;27.10;;;;;;;;;;107548;1251;61401;-80
2023/12/16 03:39:19;;;;;;;62.70;22.70;;;;;;;;;;107014;1251;59750;-80
2023/12/16 03:41:45;;;;;;;67.10;27.30;;;;;;;;;;107043;1253;59737;-80
2023/12/16 03:44:12;;;;;;;57.90;23.80;;;;;;;;;;109203;1251;59478;-80
2023/12/16 03:46:38;;;;;;;55.30;25.80;;;;;;;;;;109577;1251;58878;-80
2023/12/16 03:49:04;;;;;;;55.40;24.90;;;;;;;;;;108333;1252;60932;-80
2023/12/16 03:51:31;;;;;;;57.40;28.10;;;;;;;;;;107112;1253;61260;-80
2023/12/16 03:53:57;;;;;;;64.90;33.10;;;;;;;;;;108957;1251;59068;-80
2023/12/16 03:56:24;;;;;;;50.30;22.20;;;;;;;;;;109584;1251;58832;-80
2023/12/16 03:58:50;;;;;;;53.60;23.60;;;;;;;;;;109381;1252;59424;-80
2023/12/16 04:01:17;;;;;;;58.40;26.00;;;;;;;;;;106926;1253;61763;-80
2023/12/16 04:03:43;;;;;;;55.30;25.20;;;;;;;;;;106888;1252;62002;-80
2023/12/16 04:06:13;;;;;;;45.90;27.70;;;;;;;;;;106936;1251;59269;-80
2023/12/16 04:08:40;;;;;;;34.50;17.40;;;;;;;;;;106914;1253;59914;-80
2023/12/16 04:11:06;;;;;;;22.00;12.10;;;;;;;;;;106931;1253;60737;-80
2023/12/16 04:13:36;;;;;;;17.20;9.30;;;;;;;;;;107817;1252;59475;-80
2023/12/16 04:16:04;;;;;;;47.50;32.80;;;;;;;;;;106897;1255;61698;-80
2023/12/16 04:18:31;;;;;;;37.90;27.30;;;;;;;;;;106880;1254;59821;-80
2023/12/16 04:20:58;;;;;;;21.50;12.00;;;;;;;;;;106939;1253;59782;-80
2023/12/16 04:23:24;;;;;;;16.20;8.50;;;;;;;;;;107070;1253;60587;-80
2023/12/16 04:25:51;;;;;;;18.60;8.80;;;;;;;;;;107023;1253;61156;-80
2023/12/16 04:28:17;;;;;;;18.80;11.10;;;;;;;;;;106995;1253;62014;-80
2023/12/16 04:30:44;;;;;;;13.70;7.60;;;;;;;;;;106959;1253;60849;-80
2023/12/16 04:33:10;;;;;;;17.50;9.60;;;;;;;;;;107024;1251;59745;-80
2023/12/16 04:35:37;;;;;;;13.90;8.20;;;;;;;;;;107003;1253;59725;-80
2023/12/16 04:38:03;;;;;;;17.20;9.20;;;;;;;;;;107017;1251;59780;-80
2023/12/16 04:40:30;;;;;;;17.50;9.80;;;;;;;;;;106961;1251;60979;-80
2023/12/16 04:42:56;;;;;;;19.00;9.30;;;;;;;;;;106995;1251;60875;-80
2023/12/16 04:45:23;;;;;;;16.90;7.50;;;;;;;;;;107018;1253;59805;-80
2023/12/16 04:47:49;;;;;;;13.10;7.00;;;;;;;;;;106988;1253;59808;-80
2023/12/16 04:50:16;;;;;;;16.50;7.90;;;;;;;;;;107096;1251;59162;-80
2023/12/16 04:52:42;;;;;;;12.60;7.20;;;;;;;;;;107051;1253;59793;-80
2023/12/16 04:55:10;;;;;;;16.70;8.40;;;;;;;;;;107069;1253;59808;-80
2023/12/16 04:57:36;;;;;;;12.60;7.20;;;;;;;;;;106996;1251;60386;-81
2023/12/16 05:00:04;;;;;;;13.90;7.20;;;;;;;;;;106922;1251;59729;-80
2023/12/16 05:02:31;;;;;;;13.90;8.20;;;;;;;;;;106946;1253;59723;-81
2023/12/16 05:04:57;;;;;;;10.50;5.90;;;;;;;;;;106933;1253;60856;-80
2023/12/16 05:07:24;;;;;;;14.70;8.40;;;;;;;;;;107483;1253;59812;-80
2023/12/16 05:09:50;;;;;;;16.60;10.80;;;;;;;;;;107493;1253;59811;-80
2023/12/16 05:12:16;;;;;;;15.30;8.50;;;;;;;;;;107401;1253;59794;-81
2023/12/16 05:14:43;;;;;;;15.00;9.60;;;;;;;;;;107491;1251;59834;-81
2023/12/16 05:17:10;;;;;;;15.90;8.30;;;;;;;;;;107482;1252;60559;-80
2023/12/16 05:19:36;;;;;;;13.00;7.50;;;;;;;;;;107418;1255;60885;-80
2023/12/16 05:22:03;;;;;;;27.70;12.90;;;;;;;;;;107514;1255;60386;-80
2023/12/16 05:24:29;;;;;;;16.40;10.20;;;;;;;;;;107640;1255;59755;-80
2023/12/16 05:26:56;;;;;;;12.10;5.90;;;;;;;;;;107664;1250;59491;-81
2023/12/16 05:29:22;;;;;;;15.80;7.70;;;;;;;;;;107621;1253;59821;-80
2023/12/16 05:31:49;;;;;;;12.70;7.90;;;;;;;;;;107560;1251;60803;-81
2023/12/16 05:34:15;;;;;;;17.50;10.70;;;;;;;;;;107559;1254;60806;-81
2023/12/16 05:36:42;;;;;;;14.40;8.30;;;;;;;;;;107609;1253;59778;-81
2023/12/16 05:39:09;;;;;;;14.90;8.40;;;;;;;;;;107483;1251;60728;-81
2023/12/16 05:41:36;;;;;;;13.20;7.00;;;;;;;;;;107570;1251;62087;-80
2023/12/16 05:44:02;;;;;;;12.80;6.90;;;;;;;;;;107578;1251;59165;-81
2023/12/16 05:46:29;;;;;;;12.30;6.80;;;;;;;;;;107021;1253;60885;-80
2023/12/16 05:48:55;;;;;;;12.40;6.50;;;;;;;;;;107022;1253;59893;-80
2023/12/16 05:51:22;;;;;;;12.80;7.50;;;;;;;;;;109600;1251;58907;-80
2023/12/16 05:53:48;;;;;;;16.00;8.50;;;;;;;;;;109597;1253;58895;-80
2023/12/16 05:56:15;;;;;;;13.60;8.70;;;;;;;;;;109576;1251;58810;-80
2023/12/16 05:58:42;;;;;;;12.70;7.20;;;;;;;;;;109534;1253;58925;-80
2023/12/16 06:01:09;;;;;;;16.90;7.40;;;;;;;;;;109473;1252;59197;-80
2023/12/16 06:03:35;;;;;;;12.80;6.80;;;;;;;;;;109152;1253;59127;-80
2023/12/16 06:06:02;;;;;;;20.60;10.10;;;;;;;;;;106931;1253;61809;-80
2023/12/16 06:08:28;;;;;;;21.50;12.10;;;;;;;;;;106931;1255;59819;-80
2023/12/16 06:10:55;;;;;;;18.60;11.00;;;;;;;;;;106862;1253;59731;-80
2023/12/16 06:13:21;;;;;;;15.50;8.70;;;;;;;;;;106998;1253;59735;-80
2023/12/16 06:15:48;;;;;;;13.70;7.30;;;;;;;;;;107001;1251;59320;-80
2023/12/16 06:18:14;;;;;;;14.10;7.50;;;;;;;;;;106888;1253;59728;-80
2023/12/16 06:20:41;;;;;;;13.70;6.10;;;;;;;;;;108098;1251;59128;-80
2023/12/16 06:23:07;;;;;;;11.50;7.60;;;;;;;;;;108884;1253;58797;-80
2023/12/16 06:25:33;;;;;;;13.60;7.90;;;;;;;;;;107082;1253;59143;-80
2023/12/16 06:28:00;;;;;;;13.00;7.50;;;;;;;;;;107033;1251;60613;-80
2023/12/16 06:30:26;;;;;;;11.40;7.20;;;;;;;;;;107088;1251;59713;-80
2023/12/16 06:32:53;;;;;;;11.00;7.90;;;;;;;;;;106978;1254;128952;-80
2023/12/16 06:35:20;;;;;;;13.60;8.00;;;;;;;;;;107135;1251;60840;-80
2023/12/16 06:37:46;;;;;;;14.10;7.60;;;;;;;;;;107004;1251;59842;-80
2023/12/16 06:40:13;;;;;;;15.40;8.70;;;;;;;;;;107061;1251;59921;-80
2023/12/16 06:42:39;;;;;;;12.50;7.50;;;;;;;;;;107012;1254;59781;-80
2023/12/16 06:45:07;;;;;;;13.80;8.50;;;;;;;;;;107041;1251;59904;-80
2023/12/16 06:47:33;;;;;;;20.60;13.50;;;;;;;;;;107011;1251;60576;-80
2023/12/16 06:50:00;;;;;;;17.90;10.70;;;;;;;;;;106956;1255;59683;-80
2023/12/16 06:52:26;;;;;;;27.60;13.40;;;;;;;;;;106991;1251;60733;-80
2023/12/16 06:54:53;;;;;;;49.40;19.40;;;;;;;;;;106933;1251;61071;-80
2023/12/16 06:57:19;;;;;;;42.60;21.20;;;;;;;;;;106958;1254;60932;-80
2023/12/16 06:59:45;;;;;;;25.50;14.00;;;;;;;;;;106910;1256;59815;-80
2023/12/16 07:02:12;;;;;;;31.80;17.80;;;;;;;;;;107291;1255;59831;-80
2023/12/16 07:04:38;;;;;;;27.10;12.50;;;;;;;;;;109467;1251;58914;-80
2023/12/16 07:07:05;;;;;;;53.50;20.00;;;;;;;;;;109448;1251;59061;-81
2023/12/16 07:09:32;;;;;;;69.20;38.00;;;;;;;;;;108544;1254;59189;-81
2023/12/16 07:11:58;;;;;;;59.70;37.30;;;;;;;;;;108636;1253;60974;-80
2023/12/16 07:14:27;;;;;;;60.20;36.70;;;;;;;;;;107580;1254;59676;-80
2023/12/16 07:16:55;;;;;;;44.60;26.40;;;;;;;;;;107555;1252;59985;-80
2023/12/16 07:19:21;;;;;;;30.80;18.50;;;;;;;;;;107566;1253;62845;-81
2023/12/16 07:21:48;;;;;;;31.70;19.70;;;;;;;;;;107620;1251;60899;-81
2023/12/16 07:24:14;;;;;;;37.70;19.90;;;;;;;;;;107750;1253;60849;-80
2023/12/16 07:26:41;;;;;;;116.60;60.50;;;;;;;;;;108256;1251;59922;-80
2023/12/16 07:29:07;;;;;;;45.50;26.20;;;;;;;;;;108044;1251;59799;-80
2023/12/16 07:31:34;;;;;;;25.70;14.00;;;;;;;;;;108172;1251;59754;-79
2023/12/16 07:34:00;;;;;;;27.10;16.10;;;;;;;;;;108399;1251;59765;-80
2023/12/16 07:36:27;;;;;;;22.20;12.50;;;;;;;;;;109118;1251;59693;-80
2023/12/16 07:38:55;;;;;;;19.90;11.90;;;;;;;;;;108057;1254;59082;-80
2023/12/16 07:41:22;;;;;;;23.60;11.50;;;;;;;;;;108061;1251;59780;-80
2023/12/16 07:43:48;;;;;;;18.40;9.30;;;;;;;;;;108259;1254;61953;-80
2023/12/16 07:46:15;;;;;;;23.70;13.60;;;;;;;;;;107469;1254;60439;-80
2023/12/16 07:48:45;;;;;;;26.50;15.30;;;;;;;;;;107027;1256;59822;-80
2023/12/16 07:51:15;;;;;;;28.50;16.20;;;;;;;;;;107026;1255;59733;-80
2023/12/16 07:53:46;;;;;;;28.20;16.10;;;;;;;;;;107067;1257;59738;-80
2023/12/16 07:56:23;;;;;;;350.80;155.80;;;;;;;;;;107052;1251;62020;-80
2023/12/16 07:58:50;;;;;;;68.60;36.00;;;;;;;;;;107109;1256;59425;-80
2023/12/16 08:01:16;;;;;;;155.90;65.20;;;;;;;;;;106891;1256;60902;-80
2023/12/16 08:03:43;;;;;;;100.70;49.20;;;;;;;;;;106971;1251;60599;-80
2023/12/16 08:06:09;;;;;;;59.00;29.20;;;;;;;;;;107057;1251;60731;-80
2023/12/16 08:08:37;;;;;;;190.40;77.60;;;;;;;;;;107067;1251;59851;-80
2023/12/16 08:11:04;;;;;;;171.90;73.10;;;;;;;;;;107027;1254;61961;-80
2023/12/16 08:13:30;;;;;;;101.80;44.70;;;;;;;;;;107046;1251;59835;-80
2023/12/16 08:15:57;;;;;;;130.70;51.30;;;;;;;;;;107531;1251;61289;-80
2023/12/16 08:18:24;;;;;;;117.30;53.80;;;;;;;;;;107036;1254;60903;-80
2023/12/16 08:20:50;;;;;;;72.30;39.40;;;;;;;;;;107036;1251;62083;-80
2023/12/16 08:23:17;;;;;;;52.60;31.10;;;;;;;;;;107100;1251;59836;-80
2023/12/16 08:25:43;;;;;;;52.80;27.30;;;;;;;;;;109156;1251;60153;-81
2023/12/16 08:28:10;;;;;;;91.70;41.30;;;;;;;;;;109558;1251;59232;-80
2023/12/16 08:30:36;;;;;;;116.80;52.20;;;;;;;;;;107197;1251;59796;-80
2023/12/16 08:33:03;;;;;;;67.00;30.30;;;;;;;;;;107604;1251;59524;-81
2023/12/16 08:35:30;;;;;;;82.20;39.60;;;;;;;;;;107514;1251;60870;-80
2023/12/16 08:37:56;;;;;;;28.00;13.00;;;;;;;;;;107576;1253;61273;-80
2023/12/16 08:40:24;;;;;;;27.80;14.10;;;;;;;;;;107618;1251;59298;-81
2023/12/16 08:42:50;;;;;;;21.90;12.10;;;;;;;;;;107566;1254;60698;-80
2023/12/16 08:45:17;;;;;;;15.00;8.50;;;;;;;;;;107579;1251;61134;-80
2023/12/16 08:47:43;;;;;;;19.40;10.70;;;;;;;;;;108157;1251;59745;-80
2023/12/16 08:50:10;;;;;;;17.00;9.00;;;;;;;;;;109562;1251;59141;-80
2023/12/16 08:52:36;;;;;;;16.60;10.60;;;;;;;;;;109571;1254;58994;-80
2023/12/16 08:55:03;;;;;;;23.00;13.60;;;;;;;;;;108327;1251;59252;-80
2023/12/16 08:57:30;;;;;;;19.00;9.20;;;;;;;;;;107050;1251;61827;-80
2023/12/16 08:59:57;;;;;;;21.10;9.90;;;;;;;;;;107079;1254;59937;-80
2023/12/16 09:02:23;;;;;;;22.00;11.30;;;;;;;;;;107033;1251;59598;-80
2023/12/16 09:04:53;;;;;;;21.90;13.40;;;;;;;;;;107033;1250;59796;-80
2023/12/16 09:07:19;;;;;;;23.90;13.00;;;;;;;;;;107082;1251;60047;-80
2023/12/16 09:09:46;;;;;;;26.40;12.90;;;;;;;;;;107021;1251;60460;-80
2023/12/16 09:12:12;;;;;;;21.50;11.00;;;;;;;;;;107033;1250;59685;-80
2023/12/16 09:14:39;;;;;;;14.40;7.40;;;;;;;;;;107090;1251;59751;-80
2023/12/16 09:17:05;;;;;;;25.10;11.80;;;;;;;;;;107520;1251;61052;-80
2023/12/16 09:19:32;;;;;;;18.50;10.60;;;;;;;;;;107577;1251;59692;-80
2023/12/16 09:21:59;;;;;;;27.90;13.40;;;;;;;;;;107609;1251;62247;-80
2023/12/16 09:24:25;;;;;;;25.00;12.30;;;;;;;;;;107605;1251;60897;-79
2023/12/16 09:26:52;;;;;;;40.90;20.30;;;;;;;;;;107281;1251;61103;-80
2023/12/16 09:29:18;;;;;;;35.40;19.10;;;;;;;;;;109514;1251;58921;-79
2023/12/16 09:31:45;;;;;;;31.90;16.70;;;;;;;;;;108630;1251;60165;-80
2023/12/16 09:34:11;;;;;;;28.20;17.30;;;;;;;;;;107106;1251;59707;-79
2023/12/16 09:36:37;;;;;;;35.40;17.10;;;;;;;;;;109117;1251;59377;-79
2023/12/16 09:39:04;;;;;;;39.50;23.60;;;;;;;;;;109536;1251;59044;-80
2023/12/16 09:41:31;;;;;;;35.60;18.90;;;;;;;;;;109567;1250;59186;-80
2023/12/16 09:44:03;;;;;;;31.20;16.90;;;;;;;;;;109550;1251;58916;-80
2023/12/16 09:46:29;;;;;;;32.10;18.90;;;;;;;;;;107569;1251;62836;-80
2023/12/16 09:48:56;;;;;;;31.00;18.10;;;;;;;;;;107063;1250;59620;-79
2023/12/16 09:51:23;;;;;;;44.90;23.90;;;;;;;;;;107117;1251;61184;-81
2023/12/16 09:53:50;;;;;;;45.50;24.80;;;;;;;;;;107001;1251;60884;-79
2023/12/16 09:56:17;;;;;;;33.50;21.20;;;;;;;;;;107072;1251;59906;-79
2023/12/16 09:58:45;;;;;;;37.10;21.20;;;;;;;;;;107053;1251;62923;-79
2023/12/16 10:01:11;;;;;;;20.20;10.50;;;;;;;;;;107119;1254;59209;-81
2023/12/16 10:03:38;;;;;;;19.40;12.50;;;;;;;;;;107146;1251;59979;-81
2023/12/16 10:06:05;;;;;;;25.70;16.10;;;;;;;;;;107051;1251;59806;-80
2023/12/16 10:08:32;;;;;;;39.70;20.80;;;;;;;;;;107071;1251;59809;-80
2023/12/16 10:10:59;;;;;;;23.10;14.10;;;;;;;;;;108051;1251;61926;-79
2023/12/16 10:13:26;;;;;;;25.20;15.00;;;;;;;;;;107083;1251;59815;-80
2023/12/16 10:15:53;;;;;;;27.60;14.10;;;;;;;;;;107119;1251;60947;-79
2023/12/16 10:18:19;;;;;;;24.80;14.80;;;;;;;;;;107019;1251;59900;-80
2023/12/16 10:20:46;;;;;;;23.60;14.50;;;;;;;;;;107061;1251;59777;-80
2023/12/16 10:23:13;;;;;;;22.90;12.30;;;;;;;;;;107085;1251;60380;-79
2023/12/16 10:25:42;;;;;;;19.20;10.60;;;;;;;;;;107015;1251;59183;-80
2023/12/16 10:28:12;;;;;;;22.70;15.00;;;;;;;;;;106991;1251;59731;-79
2023/12/16 10:30:39;;;;;;;22.40;16.20;;;;;;;;;;107078;1254;60390;-80
2023/12/16 10:33:07;;;;;;;21.60;11.40;;;;;;;;;;106984;1253;60826;-80
2023/12/16 10:35:36;;;;;;;20.60;11.30;;;;;;;;;;106952;1251;61751;-79
2023/12/16 10:38:04;;;;;;;30.40;16.70;;;;;;;;;;107012;1251;60968;-79
2023/12/16 10:40:33;;;;;;;27.80;13.70;;;;;;;;;;108547;1251;59872;-79
2023/12/16 10:43:00;;;;;;;32.70;15.00;;;;;;;;;;107011;1250;59478;-79
2023/12/16 10:45:26;;;;;;;68.10;31.20;;;;;;;;;;107020;1251;59934;-80
2023/12/16 10:47:54;;;;;;;83.20;32.40;;;;;;;;;;107066;1250;60874;-80
2023/12/16 10:50:21;;;;;;;106.70;40.00;;;;;;;;;;107011;1251;59908;-80
2023/12/16 10:52:53;;;;;;;63.00;28.00;;;;;;;;;;107023;1251;60649;-80
2023/12/16 10:55:23;;;;;;;46.40;21.40;;;;;;;;;;107089;1251;60509;-79
2023/12/16 10:57:54;;;;;;;56.90;24.90;;;;;;;;;;107014;1251;60617;-79
2023/12/16 11:00:23;;;;;;;45.20;21.30;;;;;;;;;;107032;1251;61733;-80
2023/12/16 11:02:56;;;;;;;18.90;13.60;;;;;;;;;;107075;1251;61996;-80
2023/12/16 11:05:34;;;;;;;29.70;15.00;;;;;;;;;;107052;1251;60672;-79
2023/12/16 11:08:04;;;;;;;30.80;14.50;;;;;;;;;;107033;1251;59816;-79
2023/12/16 11:10:31;;;;;;;43.80;19.50;;;;;;;;;;107002;1251;59778;-80
2023/12/16 11:13:04;;;;;;;39.10;24.70;;;;;;;;;;107084;1251;61549;-79
2023/12/16 11:15:47;;;;;;;56.50;27.30;;;;;;;;;;107037;1251;60142;-79
2023/12/16 11:18:20;;;;;;;66.10;31.80;;;;;;;;;;107451;1251;59818;-80
2023/12/16 11:20:48;;;;;;;101.00;49.90;;;;;;;;;;109197;1251;59966;-79
2023/12/16 11:23:16;;;;;;;97.90;36.80;;;;;;;;;;109541;1251;58866;-80
2023/12/16 11:25:57;;;;;;;93.10;38.90;;;;;;;;;;109505;1251;62542;-80
2023/12/16 11:28:24;;;;;;;63.90;29.80;;;;;;;;;;109537;1251;59565;-80
2023/12/16 11:30:52;;;;;;;108.70;41.60;;;;;;;;;;109507;1251;59065;-80
2023/12/16 11:33:18;;;;;;;97.90;39.10;;;;;;;;;;109493;1251;59000;-80
2023/12/16 11:35:45;;;;;;;87.90;37.90;;;;;;;;;;109550;1250;58912;-80
2023/12/16 11:38:30;;;;;;;92.00;40.10;;;;;;;;;;108923;1251;62985;-80
2023/12/16 11:40:58;;;;;;;483.60;205.00;;;;;;;;;;106681;1250;59747;-80
2023/12/16 11:43:44;;;;;;;131.10;60.30;;;;;;;;;;106722;1250;59835;-79
2023/12/16 11:46:30;;;;;;;127.40;58.40;;;;;;;;;;106819;1253;62015;-79
2023/12/16 11:48:57;;;;;;;169.90;74.80;;;;;;;;;;106897;1250;60971;-79
2023/12/16 11:51:23;;;;;;;141.90;64.40;;;;;;;;;;107010;1251;60867;-80
2023/12/16 11:53:50;;;;;;;167.60;74.40;;;;;;;;;;106726;1251;59697;-80
2023/12/16 11:56:16;;;;;;;407.00;184.30;;;;;;;;;;106737;1251;61718;-80
2023/12/16 11:58:43;;;;;;;155.60;101.90;;;;;;;;;;106788;1251;59844;-80
2023/12/16 12:01:10;;;;;;;374.10;168.70;;;;;;;;;;107096;1251;59777;-80
2023/12/16 12:03:47;;;;;;;318.20;99.40;;;;;;;;;;106765;1251;59753;-80
2023/12/16 12:06:15;;;;;;;312.00;88.30;;;;;;;;;;106670;1251;59863;-79
2023/12/16 12:08:44;;;;;;;518.60;191.70;;;;;;;;;;106711;1251;59823;-79
2023/12/16 12:11:13;;;;;;;890.20;323.80;;;;;;;;;;106724;1250;59874;-79
2023/12/16 12:13:40;;;;;;;428.10;168.00;;;;;;;;;;106973;1251;60632;-79
2023/12/16 12:16:06;;;;;;;168.50;69.70;;;;;;;;;;106716;1250;59790;-80
2023/12/16 12:18:33;;;;;;;250.50;96.80;;;;;;;;;;107036;1251;59816;-80
2023/12/16 12:21:00;;;;;;;192.10;81.90;;;;;;;;;;107103;1250;62025;-79
2023/12/16 12:23:26;;;;;;;160.80;69.20;;;;;;;;;;107029;1251;61962;-79
2023/12/16 12:25:54;;;;;;;119.60;52.10;;;;;;;;;;107167;1251;59815;-80
2023/12/16 12:28:21;;;;;;;157.70;68.20;;;;;;;;;;106822;1251;61596;-80
2023/12/16 12:30:57;;;;;;;136.90;61.60;;;;;;;;;;106790;1253;59802;-79
2023/12/16 12:33:34;;;;;;;96.90;42.30;;;;;;;;;;106712;1254;59836;-80
2023/12/16 12:36:01;;;;;;;71.20;34.70;;;;;;;;;;106860;1251;60979;-79
2023/12/16 12:38:28;;;;;;;69.60;31.90;;;;;;;;;;106755;1254;59858;-79
2023/12/16 12:40:58;;;;;;;171.20;76.50;;;;;;;;;;107023;1251;63214;-79
2023/12/16 12:43:28;;;;;;;65.60;35.00;;;;;;;;;;107164;1251;61861;-80
2023/12/16 12:46:08;;;;;;;38.20;23.70;;;;;;;;;;106904;1251;61585;-79
2023/12/16 12:48:36;;;;;;;43.70;23.50;;;;;;;;;;106739;1251;61637;-80
2023/12/16 12:51:05;;;;;;;49.50;30.10;;;;;;;;;;106752;1254;59700;-80
2023/12/16 12:53:33;;;;;;;43.20;29.50;;;;;;;;;;106744;1251;61703;-80
2023/12/16 12:55:59;;;;;;;42.60;21.20;;;;;;;;;;106744;1250;60939;-80
2023/12/16 12:58:26;;;;;;;64.80;33.80;;;;;;;;;;106688;1251;59894;-80
2023/12/16 13:00:52;;;;;;;89.10;47.90;;;;;;;;;;106730;1254;59761;-80
2023/12/16 13:03:19;;;;;;;98.30;48.50;;;;;;;;;;106771;1254;59841;-80
2023/12/16 13:05:45;;;;;;;148.10;70.30;;;;;;;;;;106828;1251;59750;-80
2023/12/16 13:08:13;;;;;;;87.30;39.70;;;;;;;;;;106793;1250;61125;-79
2023/12/16 13:10:40;;;;;;;48.80;24.70;;;;;;;;;;106773;1251;59829;-80
2023/12/16 13:13:06;;;;;;;40.50;22.10;;;;;;;;;;106740;1251;59801;-80
2023/12/16 13:15:33;;;;;;;56.50;27.30;;;;;;;;;;106812;1251;59759;-79
2023/12/16 13:17:59;;;;;;;32.80;17.00;;;;;;;;;;106708;1251;61804;-80
2023/12/16 13:20:27;;;;;;;47.00;22.10;;;;;;;;;;106742;1251;59868;-79
2023/12/16 13:22:53;;;;;;;41.30;21.70;;;;;;;;;;107243;1251;60244;-79
2023/12/16 13:25:20;;;;;;;37.70;21.90;;;;;;;;;;106733;1251;61990;-79
2023/12/16 13:27:47;;;;;;;33.40;16.90;;;;;;;;;;106744;1251;60722;-80
2023/12/16 13:30:14;;;;;;;36.30;22.80;;;;;;;;;;106689;1251;60851;-79
2023/12/16 13:32:40;;;;;;;35.80;20.50;;;;;;;;;;106720;1251;60706;-79
2023/12/16 13:35:10;;;;;;;36.90;22.50;;;;;;;;;;106826;1251;62011;-79
2023/12/16 13:37:38;;;;;;;43.30;23.00;;;;;;;;;;106778;1251;60822;-80
2023/12/16 13:40:06;;;;;;;71.80;37.50;;;;;;;;;;106792;1251;59250;-80
2023/12/16 13:42:33;;;;;;;55.80;28.30;;;;;;;;;;106970;1251;61672;-80
2023/12/16 13:44:59;;;;;;;41.10;21.60;;;;;;;;;;106809;1251;60928;-79
2023/12/16 13:47:26;;;;;;;45.90;24.40;;;;;;;;;;106704;1251;61068;-79
2023/12/16 13:49:52;;;;;;;35.80;20.70;;;;;;;;;;106651;1251;59994;-80
2023/12/16 13:52:19;;;;;;;39.80;20.90;;;;;;;;;;106601;1251;59724;-79
2023/12/16 13:54:47;;;;;;;32.50;18.90;;;;;;;;;;106699;1251;59764;-80
2023/12/16 13:57:13;;;;;;;22.40;14.40;;;;;;;;;;106752;1251;60843;-79
2023/12/16 13:59:41;;;;;;;27.40;15.70;;;;;;;;;;106618;1251;60948;-79
2023/12/16 14:02:07;;;;;;;28.90;16.30;;;;;;;;;;106657;1256;59832;-80
2023/12/16 14:04:38;;;;;;;82.10;36.10;;;;;;;;;;106664;1251;59810;-80